AXB882 VOBL-VTBS
Flight info
| Callsign | AXB882 |
|---|---|
| Flight time | N/A |
| Altitude | 35000 |
| Route | TULNA7B TULNA W116 MMV P761 PPB P762 DWI L877 MIGAR L524 IBETO WILLA1C |
| Aircraft | B738/M-SDE2E3FGHIRWXY/LB1 |
Departure
| Time | N/A |
|---|---|
| Airport | Kempegowda International Airport Bengaluru (VOBL) |
Arrival
| Time | 2026-05-01 10:47 |
|---|---|
| Airport | Suvarnabhumi Airport (VTBS) |
| Time | Latitude | Longitude | Altitude | Speed | Heading |
|---|---|---|---|---|---|
| 2026-05-01 10:05 | 13.51308 | 96.88785 | 34831 ft | 430 kts | 66° |
| 2026-05-01 10:05 | 13.53785 | 96.94301 | 34831 ft | 430 kts | 66° |
| 2026-05-01 10:06 | 13.56287 | 96.99874 | 34830 ft | 431 kts | 66° |
| 2026-05-01 10:06 | 13.58795 | 97.05469 | 34831 ft | 433 kts | 66° |
| 2026-05-01 10:07 | 13.61313 | 97.11088 | 34831 ft | 436 kts | 66° |
| 2026-05-01 10:07 | 13.63863 | 97.16782 | 34831 ft | 438 kts | 66° |
| 2026-05-01 10:08 | 13.67690 | 97.25339 | 34831 ft | 440 kts | 66° |
| 2026-05-01 10:09 | 13.70237 | 97.31036 | 34830 ft | 439 kts | 66° |
| 2026-05-01 10:09 | 13.72768 | 97.36704 | 34831 ft | 439 kts | 66° |
| 2026-05-01 10:10 | 13.75304 | 97.42383 | 34831 ft | 439 kts | 66° |
| 2026-05-01 10:10 | 13.79112 | 97.50922 | 34831 ft | 439 kts | 66° |
| 2026-05-01 10:11 | 13.81649 | 97.56616 | 34830 ft | 439 kts | 66° |
| 2026-05-01 10:11 | 13.84196 | 97.62336 | 34831 ft | 439 kts | 66° |
| 2026-05-01 10:12 | 13.86738 | 97.68049 | 34831 ft | 439 kts | 66° |
| 2026-05-01 10:13 | 13.90536 | 97.76595 | 34831 ft | 439 kts | 66° |
| 2026-05-01 10:13 | 13.93065 | 97.82290 | 34831 ft | 439 kts | 66° |
| 2026-05-01 10:14 | 13.96866 | 97.90855 | 34831 ft | 439 kts | 66° |
| 2026-05-01 10:14 | 13.99402 | 97.96577 | 34830 ft | 439 kts | 66° |
| 2026-05-01 10:15 | 14.01925 | 98.02274 | 34831 ft | 439 kts | 66° |
| 2026-05-01 10:15 | 14.04463 | 98.08007 | 34831 ft | 439 kts | 66° |
| 2026-05-01 10:16 | 14.06985 | 98.13707 | 34831 ft | 439 kts | 66° |
| 2026-05-01 10:17 | 14.10435 | 98.22429 | 34830 ft | 438 kts | 75° |
| 2026-05-01 10:17 | 14.12870 | 98.31424 | 34831 ft | 438 kts | 75° |
| 2026-05-01 10:18 | 14.15294 | 98.40457 | 34831 ft | 438 kts | 75° |
| 2026-05-01 10:19 | 14.16904 | 98.46507 | 34830 ft | 438 kts | 75° |
| 2026-05-01 10:19 | 14.18510 | 98.52558 | 34831 ft | 438 kts | 75° |
| 2026-05-01 10:20 | 14.20901 | 98.61600 | 34401 ft | 434 kts | 75° |
| 2026-05-01 10:20 | 14.21698 | 98.64618 | 33556 ft | 434 kts | 75° |
| 2026-05-01 10:20 | 14.22453 | 98.67479 | 32883 ft | 432 kts | 75° |
| 2026-05-01 10:21 | 14.23234 | 98.70445 | 32066 ft | 433 kts | 75° |
| 2026-05-01 10:21 | 14.24804 | 98.76411 | 30343 ft | 434 kts | 75° |
| 2026-05-01 10:21 | 14.25598 | 98.79421 | 29837 ft | 432 kts | 75° |
| 2026-05-01 10:22 | 14.27163 | 98.85361 | 28737 ft | 438 kts | 75° |
| 2026-05-01 10:22 | 14.28752 | 98.91399 | 26943 ft | 437 kts | 75° |
| 2026-05-01 10:23 | 14.29405 | 98.94424 | 26818 ft | 434 kts | 79° |
| 2026-05-01 10:23 | 14.29711 | 99.00780 | 26505 ft | 456 kts | 96° |
| 2026-05-01 10:23 | 14.29126 | 99.03972 | 26257 ft | 459 kts | 102° |
| 2026-05-01 10:24 | 14.27544 | 99.10352 | 25752 ft | 459 kts | 102° |
| 2026-05-01 10:24 | 14.25973 | 99.16701 | 25251 ft | 459 kts | 102° |
| 2026-05-01 10:25 | 14.24374 | 99.23086 | 24754 ft | 464 kts | 102° |
| 2026-05-01 10:25 | 14.22739 | 99.29580 | 24253 ft | 471 kts | 102° |
| 2026-05-01 10:26 | 14.21989 | 99.32541 | 24023 ft | 469 kts | 102° |
| 2026-05-01 10:26 | 14.21139 | 99.35895 | 23762 ft | 466 kts | 102° |
| 2026-05-01 10:26 | 14.19537 | 99.42209 | 23270 ft | 463 kts | 102° |
| 2026-05-01 10:27 | 14.18719 | 99.48618 | 22776 ft | 457 kts | 88° |
| 2026-05-01 10:27 | 14.19898 | 99.54875 | 22288 ft | 451 kts | 68° |
| 2026-05-01 10:28 | 14.21091 | 99.57877 | 22036 ft | 449 kts | 66° |
| 2026-05-01 10:28 | 14.23467 | 99.63790 | 21433 ft | 448 kts | 66° |
| 2026-05-01 10:28 | 14.24660 | 99.66771 | 20973 ft | 445 kts | 66° |
| 2026-05-01 10:29 | 14.26996 | 99.72585 | 20074 ft | 438 kts | 66° |
| 2026-05-01 10:29 | 14.28153 | 99.75457 | 19625 ft | 434 kts | 66° |
| 2026-05-01 10:30 | 14.30440 | 99.81134 | 18722 ft | 424 kts | 66° |
| 2026-05-01 10:30 | 14.32692 | 99.86713 | 17876 ft | 418 kts | 66° |
| 2026-05-01 10:31 | 14.34918 | 99.92229 | 17837 ft | 419 kts | 66° |
| 2026-05-01 10:31 | 14.37155 | 99.97772 | 17832 ft | 424 kts | 66° |
| 2026-05-01 10:32 | 14.39336 | 100.03487 | 17821 ft | 429 kts | 73° |
| 2026-05-01 10:32 | 14.39828 | 100.06491 | 17824 ft | 431 kts | 85° |
| 2026-05-01 10:32 | 14.38856 | 100.12633 | 17631 ft | 439 kts | 103° |
| 2026-05-01 10:33 | 14.37331 | 100.18571 | 16870 ft | 423 kts | 102° |
| 2026-05-01 10:33 | 14.35860 | 100.24438 | 16119 ft | 420 kts | 102° |
| 2026-05-01 10:34 | 14.35134 | 100.27331 | 15746 ft | 419 kts | 102° |
| 2026-05-01 10:34 | 14.34530 | 100.29742 | 15434 ft | 417 kts | 102° |
| 2026-05-01 10:34 | 14.33800 | 100.32651 | 15056 ft | 415 kts | 102° |
| 2026-05-01 10:35 | 14.32439 | 100.38076 | 14346 ft | 412 kts | 102° |
| 2026-05-01 10:35 | 14.31718 | 100.40950 | 13968 ft | 410 kts | 102° |
| 2026-05-01 10:35 | 14.31013 | 100.43761 | 13596 ft | 408 kts | 102° |
| 2026-05-01 10:35 | 14.30298 | 100.46606 | 13218 ft | 407 kts | 102° |
| 2026-05-01 10:36 | 14.28895 | 100.52192 | 12392 ft | 404 kts | 102° |
| 2026-05-01 10:36 | 14.28192 | 100.54984 | 11941 ft | 401 kts | 102° |
| 2026-05-01 10:36 | 14.27493 | 100.57764 | 11490 ft | 400 kts | 102° |
| 2026-05-01 10:37 | 14.26799 | 100.60522 | 11040 ft | 397 kts | 102° |
| 2026-05-01 10:37 | 14.25049 | 100.65501 | 10121 ft | 351 kts | 123° |
| 2026-05-01 10:37 | 14.23405 | 100.67284 | 9671 ft | 340 kts | 143° |
| 2026-05-01 10:38 | 14.21305 | 100.68396 | 9232 ft | 342 kts | 160° |
| 2026-05-01 10:38 | 14.19047 | 100.69164 | 8710 ft | 343 kts | 162° |
| 2026-05-01 10:38 | 14.16836 | 100.69901 | 8078 ft | 334 kts | 162° |
| 2026-05-01 10:38 | 14.13969 | 100.70869 | 7241 ft | 320 kts | 163° |
| 2026-05-01 10:39 | 14.12560 | 100.71344 | 6820 ft | 315 kts | 163° |
| 2026-05-01 10:39 | 14.10521 | 100.72030 | 6197 ft | 307 kts | 163° |
| 2026-05-01 10:39 | 14.07882 | 100.72917 | 5471 ft | 295 kts | 163° |
| 2026-05-01 10:39 | 14.06603 | 100.73347 | 5225 ft | 286 kts | 164° |
| 2026-05-01 10:40 | 14.04753 | 100.73969 | 4871 ft | 273 kts | 164° |
| 2026-05-01 10:40 | 14.02957 | 100.74506 | 4516 ft | 261 kts | 168° |
| 2026-05-01 10:40 | 14.01307 | 100.75131 | 4166 ft | 255 kts | 152° |
| 2026-05-01 10:40 | 13.99837 | 100.76090 | 3823 ft | 247 kts | 149° |
| 2026-05-01 10:41 | 13.98388 | 100.77007 | 3495 ft | 241 kts | 154° |
| 2026-05-01 10:41 | 13.96914 | 100.77811 | 3134 ft | 235 kts | 154° |
| 2026-05-01 10:41 | 13.94093 | 100.79308 | 2966 ft | 228 kts | 156° |
| 2026-05-01 10:42 | 13.92619 | 100.79802 | 2953 ft | 225 kts | 180° |
| 2026-05-01 10:42 | 13.91072 | 100.79613 | 2971 ft | 218 kts | 193° |
| 2026-05-01 10:42 | 13.89654 | 100.79353 | 2951 ft | 201 kts | 194° |
| 2026-05-01 10:42 | 13.88337 | 100.79039 | 2970 ft | 187 kts | 197° |
| 2026-05-01 10:43 | 13.87068 | 100.78714 | 2991 ft | 191 kts | 197° |
| 2026-05-01 10:43 | 13.85788 | 100.78379 | 2961 ft | 189 kts | 197° |
| 2026-05-01 10:43 | 13.84503 | 100.78041 | 2873 ft | 191 kts | 197° |
| 2026-05-01 10:43 | 13.83221 | 100.77704 | 2634 ft | 190 kts | 197° |
| 2026-05-01 10:44 | 13.81945 | 100.77367 | 2389 ft | 188 kts | 197° |
| 2026-05-01 10:44 | 13.80690 | 100.77037 | 2131 ft | 184 kts | 197° |
| 2026-05-01 10:44 | 13.79465 | 100.76714 | 1892 ft | 184 kts | 197° |
| 2026-05-01 10:44 | 13.78221 | 100.76387 | 1638 ft | 185 kts | 197° |
| 2026-05-01 10:45 | 13.77017 | 100.76070 | 1376 ft | 174 kts | 197° |
| 2026-05-01 10:45 | 13.75906 | 100.75777 | 1196 ft | 154 kts | 197° |
| 2026-05-01 10:45 | 13.74865 | 100.75504 | 950 ft | 151 kts | 197° |
| 2026-05-01 10:45 | 13.73890 | 100.75246 | 755 ft | 145 kts | 197° |
| 2026-05-01 10:46 | 13.72911 | 100.74988 | 567 ft | 143 kts | 197° |
| 2026-05-01 10:46 | 13.71944 | 100.74733 | 376 ft | 142 kts | 196° |
| 2026-05-01 10:46 | 13.70993 | 100.74485 | 187 ft | 140 kts | 195° |
| 2026-05-01 10:46 | 13.70050 | 100.74242 | 36 ft | 139 kts | 195° |
| 2026-05-01 10:47 | 13.69212 | 100.74020 | 16 ft | 95 kts | 194° |
| 2026-05-01 10:47 | 13.68781 | 100.73907 | 16 ft | 35 kts | 194° |
| 2026-05-01 10:47 | 13.68623 | 100.73867 | 16 ft | 21 kts | 191° |
| 2026-05-01 10:47 | 13.68471 | 100.73837 | 16 ft | 21 kts | 188° |
| 2026-05-01 10:48 | 13.68333 | 100.73840 | 16 ft | 16 kts | 167° |
| 2026-05-01 10:48 | 13.68269 | 100.73864 | 16 ft | 5 kts | 159° |
| 2026-05-01 10:48 | 13.68228 | 100.73885 | 16 ft | 9 kts | 141° |
| 2026-05-01 10:48 | 13.68214 | 100.73930 | 16 ft | 5 kts | 44° |
| 2026-05-01 10:49 | 13.68249 | 100.73943 | 16 ft | 4 kts | 15° |
| 2026-05-01 10:49 | 13.68274 | 100.73950 | 16 ft | 2 kts | 15° |
| 2026-05-01 10:49 | 13.68291 | 100.73955 | 16 ft | 2 kts | 15° |
| 2026-05-01 10:49 | 13.68332 | 100.73965 | 16 ft | 9 kts | 13° |
| 2026-05-01 10:50 | 13.68422 | 100.73988 | 16 ft | 17 kts | 13° |
| 2026-05-01 10:50 | 13.68546 | 100.74023 | 16 ft | 14 kts | 14° |